Tiempo atmosférico en la estación meteorológica de Hoyos , Cáceres (569 m.)



Fecha
DESCASC
Temp. máxima en grados centígrados (hora)
DESCASC
Temp. mínima en grados centígrados (hora)
DESCASC
Temp. media en grados centígrados
DESCASC
Racha de viento máxima en m/sg (hora)
DESCASC
Velocidad máxima media en intervalos de 10 minutos(hora)
DESCASC
Precipitaciones diarias en mm
DESCASC
Precipitaciones de 00:00 a 06:00 en mm
DESCASC
Precipitaciones de 06:00 a 12:00 en mm
DESCASC
Precipitaciones de 12:00 a 18:00 en mm
DESCASC
Precipitaciones de 18:00 a 24:00 en mm
DESCASC
08-12-2019 12 (14:00) 5 (04:30) 8.5 7.22 (23:00) 3.61 (23:00) 1.4 0 0 1.4 0
07-12-2019 14.8 (14:50) 4.5 (05:30) 9.7 6.11 (13:40) 3.33 (15:20) 0 0 0 0 0
06-12-2019 15.4 (15:00) 4.5 (08:40) 9.9 6.11 (06:50) 3.33 (03:00) 0 0 0 0 0
05-12-2019 14.3 (15:00) 7 (00:00) 10.7 11.67 (05:50) 6.67 (03:20) 0 0 0 0 0
04-12-2019 11.4 (15:50) 4.4 (00:00) 7.9 11.94 (20:20) 6.11 (20:30) 0 0 0 0 0
03-12-2019 11.5 (15:30) 3.1 (00:00) 7.3 11.39 (03:00) 6.39 (03:00) 0 0 0 0 0
02-12-2019 13.6 (15:10) 6.1 (00:00) 9.9 12.22 (09:40) 5.83 (01:30) 0 0 0 0 0
01-12-2019 11.1 (12:00) 5.7 (00:00) 8.4 10.83 (22:50) 5 (23:50) 4 1.6 2.4 0 0
30-11-2019 13.7 (15:40) 6.1 (00:00) 9.9 12.22 (13:10) 6.11 (15:10) 0.6 0 0 0.6 0
29-11-2019 14.1 (16:30) 12.7 (00:00) 13.4 10 (07:50) 5.56 (00:10) 13.6 1.6 6.8 5.2 0
28-11-2019 13.7 (16:30) 9.8 (00:00) 11.8 10.28 (23:20) 5.56 (22:20) 1.4 0 0 1.4 0
27-11-2019 12.3 (16:10) 6.8 (00:00) 9.6 8.06 (00:20) 3.89 (03:30) 0.2 0 0.2 0 0
26-11-2019 14.3 (17:10) 10.3 (00:00) 12.3 11.11 (15:40) 5.83 (15:50) 27.4 4 13.6 7.2 2.6
25-11-2019 15.8 (14:30) 9.7 (00:00) 12.8 6.94 (14:30) 3.06 (15:00) 6.8 6.6 0.2 0 0
24-11-2019 10.7 (15:10) 3.1 (00:00) 6.9 5.83 (01:10) 3.61 (00:10) 8 0 0 0.2 7.8
23-11-2019 -- (--) -- (--) -- -- (--) -- (--) -- -- -- -- --
22-11-2019 15.1 (14:10) 8.7 (00:00) 11.9 13.89 (18:10) 7.5 (18:10) 37.8 8.2 25.6 0 4
21-11-2019 12.9 (16:00) 6.2 (00:00) 9.5 3.89 (15:40) 2.22 (15:20) 5.6 2.6 1.2 0 1.8
20-11-2019 -- (--) -- (--) -- -- (--) -- (--) -- -- -- -- --
19-11-2019 -- (--) -- (--) -- -- (--) -- (--) -- -- -- -- --
18-11-2019 -- (--) -- (--) -- -- (--) -- (--) -- -- -- -- --
17-11-2019 -- (--) -- (--) -- -- (--) -- (--) -- -- -- -- --
16-11-2019 -- (--) -- (--) -- -- (--) -- (--) -- -- -- -- --
15-11-2019 -- (--) -- (--) -- -- (--) -- (--) -- -- -- -- --
14-11-2019 -- (--) -- (--) -- -- (--) -- (--) -- 1.2 0.2 -- --
13-11-2019 19.4 (15:40) 7 (00:00) 13.2 11.67 (20:10) 6.11 (20:30) 5.4 5.4 0 0 0
12-11-2019 15.2 (16:20) 7.4 (00:00) 11.3 13.89 (06:50) 8.61 (06:50) 0 0 0 0 0
11-11-2019 16.7 (14:50) 8.4 (00:00) 12.6 15.83 (23:20) 9.72 (23:20) 0 0 0 0 0

Gráficas

Temp. máximas Temp. mínimas Temp. medias Precipitaciones Rachas de viento máximas Velocidades máximas media en intervalos de 10 minutos

Datos horarios

Fecha y hora oficial Temperatura (ºC) Velocidad del viento (km/h) Dirección del viento Racha (km/h) Dirección de racha Precipitación (mm) Presión (hPa) Tendencia (hPa) Humedad (%)
2019-12-10 23:00:00 -- -- -- -- -- -- -- -- --
2019-12-10 22:00:00 -- -- -- -- -- -- -- -- --
2019-12-10 21:00:00 -- -- -- -- -- -- -- -- --
2019-12-10 20:00:00 -- -- -- -- -- -- -- -- --
2019-12-10 19:00:00 -- -- -- -- -- -- -- -- --
2019-12-10 18:00:00 8.7 0 Calma 4 Sudeste 0 -- -- 87
2019-12-10 17:00:00 10 3 Norte 7 Sudeste 0 -- -- 85
2019-12-10 16:00:00 10 3 Este 6 Este 0 -- -- 84
2019-12-10 15:00:00 10.3 5 Este 11 Este 0 -- -- 80
2019-12-10 14:00:00 11.4 5 Sudeste 9 Este 0 -- -- 77
2019-12-10 13:00:00 10 3 Sur 6 Sur 0 -- -- 81
2019-12-10 12:00:00 8 3 Sudeste 6 Sudeste 0 -- -- 87
2019-12-10 11:00:00 6 0 Calma 5 Sudeste 0 -- -- 93
2019-12-10 10:00:00 5.4 0 Calma 4 Norte 0 -- -- 95
2019-12-10 09:00:00 4.9 2 Noroeste 6 Noroeste 0 -- -- 96
2019-12-10 08:00:00 4 3 Norte 4 Noroeste 0 -- -- 96
2019-12-10 07:00:00 3.4 0 Calma 5 Este 0 -- -- 89
2019-12-10 06:00:00 4.6 3 Noroeste 15 Este 0 -- -- 84
2019-12-10 05:00:00 5.7 3 Nordeste 10 Norte 0 -- -- 69
2019-12-10 04:00:00 8.3 3 Oeste 21 Norte 0 -- -- 56
2019-12-10 03:00:00 10.4 7 Norte 28 Norte 0 -- -- 49
2019-12-10 02:00:00 10.6 14 Norte 31 Norte 0 -- -- 52
2019-12-10 01:00:00 9.3 5 Norte 24 Noroeste 0 -- -- 52
2019-12-10 00:00:00 12.4 17 Norte 48 Noroeste 0 -- -- 38
2019-12-09 23:00:00 12.2 30 Norte 45 Norte 0 -- -- 41
2019-12-09 22:00:00 12.8 21 Norte 40 Norte 0 -- -- 38
2019-12-09 21:00:00 12.5 19 Norte 36 Norte 0 -- -- 40
2019-12-09 20:00:00 12.8 17 Norte 36 Nordeste 0 -- -- 37
2019-12-09 19:00:00 11.5 3 Nordeste 13 Norte 0 -- -- 48
2019-12-09 18:00:00 13 8 Noroeste 18 Noroeste 0 -- -- 48
2019-12-09 17:00:00 15.5 4 Sudoeste 17 Norte 0 -- -- 41
2019-12-09 16:00:00 14.2 8 Norte 31 Norte 0 -- -- 44
2019-12-09 15:00:00 13.9 9 Norte 31 Norte 0 -- -- 46
2019-12-09 14:00:00 15.4 12 Norte 26 Nordeste 0 -- -- 40
2019-12-09 13:00:00 15 6 Norte 19 Noroeste 0 -- -- 47
2019-12-09 12:00:00 13.1 3 Norte 16 Norte 0 -- -- 58
2019-12-09 11:00:00 10.1 10 Norte 26 Nordeste 0 -- -- 69
2019-12-09 10:00:00 9.2 6 Norte 24 Nordeste 0 -- -- 66
2019-12-09 09:00:00 4.5 3 Noroeste 10 Noroeste 0 -- -- 87
2019-12-09 08:00:00 4.5 4 Norte 12 Norte 0.2 -- -- 91
2019-12-09 07:00:00 4.7 3 Noroeste 6 Nordeste 0 -- -- 91
2019-12-09 06:00:00 6 2 Noroeste 13 Noroeste 0 -- -- 90
2019-12-09 05:00:00 6.6 6 Noroeste 11 Norte 0 -- -- 88
2019-12-09 04:00:00 9 2 Noroeste 21 Nordeste 0 -- -- 87
2019-12-09 03:00:00 10 5 Norte 24 Norte 0 -- -- 85
2019-12-09 02:00:00 9.6 4 Sudeste 14 Oeste 0 -- -- 88
2019-12-09 01:00:00 9.6 3 Noroeste 15 Norte 0 -- -- 90
2019-12-09 00:00:00 11.5 6 Nordeste 22 Norte 0 -- -- 87
2019-12-08 23:00:00 11.7 13 Norte 26 Norte 0 -- -- 90
2019-12-08 22:00:00 9.8 2 Sudoeste 9 Este 0 -- -- 95
2019-12-08 21:00:00 9.1 0 Calma 5 Norte 0 -- -- 96
2019-12-08 20:00:00 9.3 2 Nordeste 4 Este 0 -- -- 95
2019-12-08 19:00:00 9.9 0 Calma 3 Este -- -- -- 94
2019-12-08 18:00:00 9.7 0 Calma 3 Sur 0 -- -- 94
2019-12-08 17:00:00 9.8 0 Calma 5 Este 0 -- -- 94
2019-12-08 16:00:00 10.1 3 Este 6 Este 1 -- -- 93
2019-12-08 15:00:00 10.5 3 Sudeste 10 Este 0.4 -- -- 89
2019-12-08 14:00:00 12 0 Calma 7 Sur 0 -- -- 81
2019-12-08 13:00:00 11.6 2 Sur 6 Sudeste 0 -- -- 83
2019-12-08 12:00:00 9.6 3 Sudeste 5 Sudeste 0 -- -- 87
2019-12-08 11:00:00 9.5 3 Sudeste 5 Sudeste 0 -- -- 86
2019-12-08 10:00:00 8.5 2 Norte 4 Oeste 0 -- -- 88
2019-12-08 09:00:00 7.6 0 Calma 4 Norte 0 -- -- 89
2019-12-08 08:00:00 7.2 0 Calma 5 Este 0 -- -- 90
2019-12-08 07:00:00 5.7 0 Calma 6 Norte 0 -- -- 93
2019-12-08 06:00:00 5.4 2 Norte 6 Este 0 -- -- 89
2019-12-08 05:00:00 5.4 2 Este 7 Este 0 -- -- 91
2019-12-08 04:00:00 5.6 2 Noroeste 4 Nordeste 0 -- -- 91
2019-12-08 03:00:00 5.5 0 Calma 4 Norte 0 -- -- 92
2019-12-08 02:00:00 5.7 2 Nordeste 4 Norte 0 -- -- 89
2019-12-08 01:00:00 6.4 4 Norte 8 Noroeste 0 -- -- 87
2019-12-08 00:00:00 7.2 3 Noroeste 9 Norte 0 -- -- 87
2019-12-07 23:00:00 7 5 Norte 7 Norte 0 -- -- 90
2019-12-07 22:00:00 7.4 3 Norte 7 Noroeste 0 -- -- 88
2019-12-07 21:00:00 7.7 6 Noroeste 8 Noroeste 0 -- -- 88
2019-12-07 20:00:00 7.7 0 Calma 6 Norte 0 -- -- 90
2019-12-07 19:00:00 8.7 3 Norte 5 Noroeste 0 -- -- 87
2019-12-07 18:00:00 11.6 5 Norte 10 Nordeste 0 -- -- 75
2019-12-07 17:00:00 14.4 4 Nordeste 16 Sudoeste 0 -- -- 67
2019-12-07 16:00:00 14.6 11 Sudoeste 20 Sudoeste 0 -- -- 63
2019-12-07 15:00:00 14.7 11 Sudoeste 18 Oeste 0 -- -- 63
2019-12-07 14:00:00 14.1 11 Oeste 22 Sudoeste 0 -- -- 65
2019-12-07 13:00:00 13.6 10 Sur 15 Sudoeste 0 -- -- 67
2019-12-07 12:00:00 12.2 5 Sudeste 9 Este 0 -- -- 73
2019-12-07 11:00:00 11.6 0 Calma 5 Sudeste 0 -- -- 73
2019-12-07 10:00:00 9.3 0 Calma 4 Sudeste 0 -- -- 84
2019-12-07 09:00:00 5.8 2 Noroeste 9 Norte 0 -- -- 90
2019-12-07 08:00:00 4.8 3 Sudeste 6 Noroeste 0 -- -- 91
2019-12-07 07:00:00 5.8 0 Calma 5 Noroeste 0 -- -- 93
2019-12-07 06:00:00 4.9 4 Noroeste 5 Noroeste 0 -- -- 96
2019-12-07 05:00:00 4.8 3 Norte 5 Norte 0 -- -- 92
2019-12-07 04:00:00 5 2 Noroeste 5 Noroeste 0 -- -- 93
2019-12-07 03:00:00 5.4 3 Noroeste 6 Noroeste 0 -- -- 90
2019-12-07 02:00:00 5.6 3 Norte 6 Norte 0 -- -- 89
2019-12-07 01:00:00 6.2 4 Norte 5 Noroeste 0 -- -- 88
2019-12-07 00:00:00 7.4 3 Norte 12 Norte 0 -- -- 79
2019-12-06 23:00:00 8.3 7 Norte 17 Norte 0 -- -- 73
2019-12-06 22:00:00 8.5 9 Norte 17 Norte 0 -- -- 72
2019-12-06 21:00:00 7.8 4 Norte 9 Nordeste 0 -- -- 78
2019-12-06 20:00:00 7.6 5 Norte 10 Nordeste 0 -- -- 79
2019-12-06 19:00:00 8.7 5 Norte 15 Norte 0 -- -- 76
2019-12-06 18:00:00 10.6 9 Norte 16 Norte 0 -- -- 72
2019-12-06 17:00:00 13 4 Norte 16 Norte 0 -- -- 66
2019-12-06 16:00:00 15 3 Sudoeste 10 Sudeste 0 -- -- 60
2019-12-06 15:00:00 15.4 3 Sudeste 11 Sudeste 0 -- -- 57
2019-12-06 14:00:00 14.3 3 Norte 12 Sudeste 0 -- -- 61
2019-12-06 13:00:00 13.9 5 Sur 13 Sudeste 0 -- -- 60
2019-12-06 12:00:00 13.2 5 Sudeste 14 Sudeste 0 -- -- 63
2019-12-06 11:00:00 12.7 3 Sudeste 10 Este 0 -- -- 61
2019-12-06 10:00:00 10 3 Nordeste 14 Nordeste 0 -- -- 75
2019-12-06 09:00:00 6.2 12 Nordeste 18 Nordeste 0 -- -- 86
2019-12-06 08:00:00 5.8 2 Norte 19 Norte 0 -- -- 83
2019-12-06 07:00:00 7.2 11 Norte 22 Norte 0 -- -- 79
2019-12-06 06:00:00 8 10 Norte 15 Noroeste 0 -- -- 77
2019-12-06 05:00:00 7.8 9 Norte 17 Nordeste 0 -- -- 76
2019-12-06 04:00:00 8.3 10 Norte 18 Norte 0 -- -- 74
2019-12-06 03:00:00 8.3 12 Norte 18 Norte 0 -- -- 75
2019-12-06 02:00:00 8.2 9 Norte 17 Norte 0 -- -- 75
2019-12-06 01:00:00 8.6 9 Norte 14 Norte 0 -- -- 73
2019-12-06 00:00:00 7.6 6 Norte 14 Nordeste 0 -- -- 78
2019-12-05 23:00:00 9.5 7 Norte 17 Nordeste 0 -- -- 69
2019-12-05 22:00:00 9.2 6 Norte 18 Norte 0 -- -- 71
2019-12-05 21:00:00 9 7 Norte 15 Norte 0 -- -- 72
2019-12-05 20:00:00 8.9 5 Norte 21 Norte 0 -- -- 73
2019-12-05 19:00:00 9.3 10 Norte 26 Norte 0 -- -- 72
2019-12-05 18:00:00 10.6 11 Norte 33 Norte 0 -- -- 68
2019-12-05 17:00:00 12.7 14 Norte 29 Norte 0 -- -- 63
2019-12-05 16:00:00 13.9 12 Norte 25 Norte 0 -- -- 60
2019-12-05 15:00:00 14.3 10 Norte 25 Norte 0 -- -- 59
2019-12-05 14:00:00 13.8 12 Norte 28 Norte 0 -- -- 61
2019-12-05 13:00:00 13.2 13 Norte 31 Norte 0 -- -- 62
2019-12-05 12:00:00 12 13 Norte 34 Norte 0 -- -- 63
2019-12-05 11:00:00 10.6 18 Norte 34 Norte 0 -- -- 66
2019-12-05 10:00:00 9.4 13 Norte 32 Norte 0 -- -- 69
2019-12-05 09:00:00 7.6 17 Norte 33 Nordeste 0 -- -- 75
2019-12-05 08:00:00 7.2 14 Norte 33 Norte 0 -- -- 76
2019-12-05 07:00:00 7.1 12 Norte 35 Norte 0 -- -- 74
2019-12-05 06:00:00 7 17 Norte 42 Norte 0 -- -- 73
2019-12-05 05:00:00 7.8 18 Norte 35 Noroeste 0 -- -- 67
2019-12-05 04:00:00 8.1 16 Norte 37 Noroeste 0 -- -- 68
2019-12-05 03:00:00 7.7 21 Norte 38 Norte 0 -- -- 73
2019-12-05 02:00:00 7.3 18 Norte 40 Norte 0 -- -- 80
2019-12-05 01:00:00 8.2 21 Norte 42 Norte 0 -- -- 77
2019-12-05 00:00:00 8.3 16 Norte 36 Noroeste 0 -- -- 76
2019-12-04 23:00:00 8.8 16 Norte 38 Norte 0 -- -- 73
2019-12-04 22:00:00 8.7 15 Norte 40 Norte 0 -- -- 73
2019-12-04 21:00:00 8.5 18 Norte 43 Norte 0 -- -- 74
2019-12-04 20:00:00 8.3 20 Norte 41 Norte 0 -- -- 75
2019-12-04 19:00:00 8 22 Norte 40 Norte 0 -- -- 74
2019-12-04 18:00:00 8.2 19 Norte 41 Norte 0 -- -- 72
2019-12-04 17:00:00 10.1 20 Norte 40 Norte 0 -- -- 66
2019-12-04 16:00:00 11.3 15 Norte 34 Norte 0 -- -- 62
2019-12-04 15:00:00 10.7 17 Norte 32 Norte 0 -- -- 64
2019-12-04 14:00:00 10.5 17 Norte 32 Norte 0 -- -- 64
2019-12-04 13:00:00 9.1 20 Norte 33 Norte 0 -- -- 69
2019-12-04 12:00:00 8.8 15 Norte 27 Nordeste 0 -- -- 70
2019-12-04 11:00:00 7.5 7 Norte 18 Norte 0 -- -- 74
2019-12-04 10:00:00 6.2 8 Norte 28 Norte 0 -- -- 77
2019-12-04 09:00:00 5.8 10 Norte 22 Noroeste 0 -- -- 78
2019-12-04 08:00:00 4.5 0 Calma 10 Norte 0 -- -- 85
2019-12-04 07:00:00 4.7 3 Norte 11 Nordeste 0 -- -- 85
2019-12-04 06:00:00 5.4 5 Norte 9 Nordeste 0 -- -- 81
2019-12-04 05:00:00 6.8 3 Norte 8 Noroeste 0 -- -- 78
2019-12-04 04:00:00 7.6 4 Nordeste 6 Este 0 -- -- 74
2019-12-04 03:00:00 7.5 2 Norte 12 Nordeste 0 -- -- 76
2019-12-04 02:00:00 6.5 4 Norte 9 Nordeste 0 -- -- 79
2019-12-04 01:00:00 7 5 Norte 11 Norte 0 -- -- 78
2019-12-04 00:00:00 7.3 6 Nordeste 13 Nordeste 0 -- -- 76
2019-12-03 23:00:00 6.7 7 Norte 15 Norte 0 -- -- 76
2019-12-03 22:00:00 6.2 10 Norte 17 Norte 0 -- -- 77
2019-12-03 21:00:00 6.1 9 Norte 19 Norte 0 -- -- 77
2019-12-03 20:00:00 5.6 7 Norte 18 Norte 0 -- -- 77
2019-12-03 19:00:00 6.6 10 Norte 26 Norte 0 -- -- 72
2019-12-03 18:00:00 7.3 12 Norte 26 Norte 0 -- -- 70
2019-12-03 17:00:00 10.1 11 Norte 21 Norte 0 -- -- 63
2019-12-03 16:00:00 11.2 10 Norte 20 Norte 0 -- -- 60
2019-12-03 15:00:00 11.2 12 Norte 27 Norte 0 -- -- 60
2019-12-03 14:00:00 10.4 10 Norte 30 Norte 0 -- -- 64
2019-12-03 13:00:00 8.8 17 Norte 29 Norte 0 -- -- 66
2019-12-03 12:00:00 7.9 18 Norte 29 Norte 0 -- -- 67
2019-12-03 11:00:00 6.4 18 Norte 28 Norte 0 -- -- 71
2019-12-03 10:00:00 6.2 16 Nordeste 24 Nordeste 0 -- -- 70
2019-12-03 09:00:00 4.3 15 Norte 32 Norte 0 -- -- 74
2019-12-03 08:00:00 4.3 14 Norte 28 Norte 0 -- -- 74
2019-12-03 07:00:00 4.5 16 Norte 31 Norte 0 -- -- 74
2019-12-03 06:00:00 3.1 15 Norte 31 Norte 0 -- -- 80
2019-12-03 05:00:00 3.8 18 Norte 36 Norte 0 -- -- 78
2019-12-03 04:00:00 4.8 16 Norte 38 Norte 0 -- -- 76
2019-12-03 03:00:00 4.8 23 Norte 41 Norte 0 -- -- 77
2019-12-03 02:00:00 6 17 Norte 33 Norte 0 -- -- 74
2019-12-03 01:00:00 6.6 17 Norte 33 Norte 0 -- -- 74
2019-12-03 00:00:00 7.1 17 Norte 32 Norte 0 -- -- 73
2019-12-02 23:00:00 7.4 11 Norte 36 Norte 0 -- -- 73
2019-12-02 22:00:00 7.9 15 Norte 32 Norte 0 -- -- 72
2019-12-02 21:00:00 8.1 16 Norte 31 Norte 0 -- -- 73
2019-12-02 20:00:00 8.6 18 Norte 40 Norte 0 -- -- 70
2019-12-02 19:00:00 9.2 12 Norte 24 Norte 0 -- -- 66
2019-12-02 18:00:00 10 7 Norte 21 Nordeste 0 -- -- 63
2019-12-02 17:00:00 12 10 Nordeste 29 Norte 0 -- -- 58
2019-12-02 16:00:00 12.8 14 Nordeste 27 Nordeste 0 -- -- 54
2019-12-02 15:00:00 13.3 12 Nordeste 31 Nordeste 0 -- -- 55
2019-12-02 14:00:00 12.6 16 Nordeste 35 Nordeste 0 -- -- 57
2019-12-02 13:00:00 12.7 12 Nordeste 32 Este 0 -- -- 57
2019-12-02 12:00:00 11.5 10 Nordeste 37 Nordeste 0 -- -- 63
2019-12-02 11:00:00 9.4 19 Nordeste 43 Nordeste 0 -- -- 72
2019-12-02 10:00:00 7.9 19 Norte 44 Norte 0 -- -- 76
2019-12-02 09:00:00 6.6 16 Norte 39 Norte 0 -- -- 80
2019-12-02 08:00:00 6.2 12 Norte 31 Norte 0 -- -- 82
2019-12-02 07:00:00 6.7 12 Norte 33 Norte 0 -- -- 79
2019-12-02 06:00:00 7.3 16 Norte 35 Nordeste 0 -- -- 78
2019-12-02 05:00:00 7.9 15 Norte 37 Nordeste 0 -- -- 78
2019-12-02 04:00:00 7.8 16 Nordeste 32 Norte 0 -- -- 80
2019-12-02 03:00:00 7.8 15 Norte 43 Norte 0 -- -- 80
2019-12-02 02:00:00 8 17 Nordeste 43 Nordeste 0 -- -- 81
2019-12-02 01:00:00 8 21 Nordeste 40 Nordeste 0 -- -- 82
2019-12-02 00:00:00 8.1 13 Nordeste 37 Norte 0 -- -- 82
2019-12-01 23:00:00 8.4 17 Norte 39 Norte 0 -- -- 82
2019-12-01 22:00:00 8.3 14 Norte 32 Norte 0 -- -- 84
2019-12-01 21:00:00 8.5 8 Norte 24 Nordeste 0 -- -- 86
2019-12-01 20:00:00 8.8 6 Nordeste 28 Norte 0 -- -- 87
2019-12-01 19:00:00 8.7 12 Norte 32 Norte 0 -- -- 89
2019-12-01 18:00:00 8.8 9 Norte 17 Noroeste 0 -- -- 89
2019-12-01 17:00:00 8.9 6 Nordeste 23 Norte 0 -- -- 89
2019-12-01 16:00:00 9.2 2 Este 9 Norte 0 -- -- 95
2019-12-01 15:00:00 8.8 5 Norte 10 Norte 0 -- -- 92
2019-12-01 14:00:00 9.2 7 Oeste 13 Noroeste 0 -- -- 88
2019-12-01 13:00:00 10.8 3 Sudeste 12 Sudoeste 0 -- -- 87
2019-12-01 12:00:00 11.1 10 Sur 16 Sur 0 -- -- 85
2019-12-01 11:00:00 10 8 Sudoeste 17 Sudoeste 0 -- -- 92
2019-12-01 10:00:00 9.7 8 Sudoeste 23 Oeste 0.2 -- -- 95
2019-12-01 09:00:00 8.9 9 Sudoeste 20 Sudoeste 0.8 -- -- 96
2019-12-01 08:00:00 8.8 5 Sur 28 Sur 0.8 -- -- 97
2019-12-01 07:00:00 8.7 14 Sur 26 Sur 0.6 -- -- 98
2019-12-01 06:00:00 8.4 13 Sur 27 Sur 0.6 -- -- 98
2019-12-01 05:00:00 7.7 9 Sudeste 26 Sudeste 0.8 -- -- 97
2019-12-01 04:00:00 6.8 0 Calma 11 Este 0 -- -- 96
2019-12-01 03:00:00 7.2 4 Nordeste 13 Sudeste 0.2 -- -- 94
2019-12-01 02:00:00 7.4 4 Sudoeste 9 Oeste 0 -- -- 95
2019-12-01 01:00:00 5.7 5 Oeste 21 Oeste 0 -- -- 92
2019-12-01 00:00:00 7 4 Oeste 20 Oeste 0 -- -- 87
2019-11-30 23:00:00 6.7 4 Sudoeste 13 Oeste 0 -- -- 89
2019-11-30 22:00:00 6.5 2 Oeste 13 Oeste 0 -- -- 88
2019-11-30 21:00:00 7.2 2 Oeste 20 Noroeste 0 -- -- 85
2019-11-30 20:00:00 7.4 8 Noroeste 17 Norte 0 -- -- 85
2019-11-30 19:00:00 9.7 3 Este 31 Noroeste 0 -- -- 90
2019-11-30 18:00:00 11.3 5 Oeste 29 Oeste 0.2 -- -- 92
2019-11-30 17:00:00 11.9 14 Oeste 35 Noroeste 0 -- -- 89
2019-11-30 16:00:00 13.3 14 Oeste 44 Oeste 0 -- -- 86
2019-11-30 15:00:00 13.1 20 Oeste 40 Oeste 0 -- -- 92
2019-11-30 14:00:00 13.6 13 Sur 44 Sur 0 -- -- 93
2019-11-30 13:00:00 13.2 15 Sudoeste 32 Sudoeste 0.4 -- -- 95
2019-11-30 12:00:00 12.6 15 Sur 31 Sur 0 -- -- 97
2019-11-30 11:00:00 12.1 16 Sur 32 Sur 0 -- -- 98
2019-11-30 10:00:00 12 13 Sur 29 Sur 0 -- -- 97
2019-11-30 09:00:00 12.1 12 Sur 25 Sur 0 -- -- 97
2019-11-30 08:00:00 12.3 11 Sur 23 Sur 0 -- -- 96
2019-11-30 07:00:00 12.5 8 Sur 24 Sudoeste -- -- -- 95
2019-11-30 06:00:00 12.7 10 Sur 23 Sur 0 -- -- 94
2019-11-30 05:00:00 12.7 9 Sur 23 Sudoeste 0 -- -- 94
2019-11-30 04:00:00 12.7 8 Sur 21 Sur 0 -- -- 95
2019-11-30 03:00:00 12.7 7 Sudoeste 22 Sudoeste 0 -- -- 95
2019-11-30 02:00:00 12.8 10 Sudoeste 24 Sudoeste 0 -- -- 95
2019-11-30 01:00:00 13 13 Sudoeste 27 Sur 0 -- -- 96
2019-11-30 00:00:00 13.2 10 Sudoeste 28 Oeste 0 -- -- 96
2019-11-29 23:00:00 13.4 8 Oeste 25 Sudoeste 0 -- -- 95
2019-11-29 22:00:00 13.5 8 Sudoeste 24 Sudoeste 0 -- -- 95
2019-11-29 21:00:00 13.8 5 Sudoeste 17 Sur 0 -- -- 94
2019-11-29 20:00:00 13.9 9 Sudoeste 18 Sur 0 -- -- 94
2019-11-29 19:00:00 13.8 9 Sudoeste 17 Sudoeste 0 -- -- 94
2019-11-29 18:00:00 13.9 8 Sudoeste 19 Sudoeste 0 -- -- 95
2019-11-29 17:00:00 14.1 8 Sudoeste 18 Sudoeste 0.2 -- -- 94
2019-11-29 16:00:00 13.9 7 Sudoeste 17 Sudoeste 0.6 -- -- 96
2019-11-29 15:00:00 14 8 Sudoeste 18 Oeste 1.6 -- -- 96
2019-11-29 14:00:00 14 5 Sur 13 Sudoeste 1.8 -- -- 96
2019-11-29 13:00:00 13.6 7 Sudoeste 15 Sudoeste 1 -- -- 96
2019-11-29 12:00:00 13.6 6 Sur 12 Sudoeste 1.2 -- -- 96
2019-11-29 11:00:00 13.3 6 Sudoeste 18 Oeste 2 -- -- 96
2019-11-29 10:00:00 12.8 10 Oeste 25 Sudoeste 1.8 -- -- 96
2019-11-29 09:00:00 12.8 9 Sudoeste 28 Sudoeste 1 -- -- 96
2019-11-29 08:00:00 12.9 13 Sudoeste 36 Sudoeste 0.6 -- -- 96
2019-11-29 07:00:00 12.9 8 Sudoeste 19 Sur 0.2 -- -- 96
2019-11-29 06:00:00 13 8 Sudoeste 24 Sur 0 -- -- 96
2019-11-29 05:00:00 13 9 Sudoeste 28 Oeste 1.2 -- -- 97
2019-11-29 04:00:00 13 9 Oeste 20 Oeste 0.4 -- -- 97
2019-11-29 03:00:00 12.9 7 Sur 22 Sudoeste 0 -- -- 96
2019-11-29 02:00:00 12.8 5 Sudoeste 26 Sudoeste 0 -- -- 95
2019-11-29 01:00:00 12.7 11 Sudoeste 32 Sudoeste 0 -- -- 95
2019-11-29 00:00:00 12.7 19 Oeste 37 Oeste 0 -- -- 94
2019-11-28 23:00:00 12.8 18 Oeste 33 Oeste 0 -- -- 94
2019-11-28 22:00:00 12.9 13 Oeste 30 Oeste 0 -- -- 92
2019-11-28 21:00:00 12.8 6 Sudoeste 18 Sudoeste 0 -- -- 90
2019-11-28 20:00:00 13 9 Sur 23 Sudeste 0 -- -- 89
2019-11-28 19:00:00 13.2 9 Sudeste 28 Sur 0 -- -- 87
2019-11-28 18:00:00 13.4 9 Sur 28 Sur 0 -- -- 86
2019-11-28 17:00:00 13.5 11 Sudoeste 27 Sudoeste 0 -- -- 86
2019-11-28 16:00:00 13.4 12 Sur 26 Sur 0 -- -- 88
2019-11-28 15:00:00 12.9 10 Sudoeste 24 Sudoeste 0 -- -- 92
2019-11-28 14:00:00 12 10 Sudoeste 23 Sudoeste 0.6 -- -- 96
2019-11-28 13:00:00 11.6 8 Sur 26 Oeste 0.8 -- -- 96
2019-11-28 12:00:00 11.5 13 Sudoeste 26 Sur 0 -- -- 96
2019-11-28 11:00:00 10.8 7 Sudoeste 23 Sudoeste 0 -- -- 98
2019-11-28 10:00:00 10.6 13 Sudoeste 24 Sudoeste 0 -- -- 98
2019-11-28 09:00:00 10.2 11 Sur 23 Sur 0 -- -- 98
2019-11-28 08:00:00 10.3 8 Sur 19 Sudoeste 0 -- -- 97
2019-11-28 07:00:00 10.3 5 Sudeste 13 Sudeste 0 -- -- 96
2019-11-28 06:00:00 10.1 5 Sur 13 Sur 0 -- -- 96
2019-11-28 05:00:00 10.3 5 Sur 13 Sudoeste 0 -- -- 94
2019-11-28 04:00:00 10.1 5 Sudoeste 19 Sudoeste 0 -- -- 94
2019-11-28 03:00:00 10.2 5 Sudoeste 22 Sudoeste 0 -- -- 95
2019-11-28 02:00:00 10.1 5 Sudoeste 15 Sudoeste 0 -- -- 94
2019-11-28 01:00:00 9.8 8 Sudoeste 18 Sudoeste 0 -- -- 93
2019-11-28 00:00:00 9.8 9 Oeste 22 Oeste 0 -- -- 91
2019-11-27 23:00:00 9.6 5 Oeste 15 Oeste 0 -- -- 91
2019-11-27 22:00:00 9.2 3 Noroeste 11 Oeste 0 -- -- 92
2019-11-27 21:00:00 9.2 3 Oeste 13 Oeste 0 -- -- 90
2019-11-27 20:00:00 10.6 8 Oeste 19 Noroeste 0 -- -- 87
2019-11-27 19:00:00 11 8 Oeste 27 Oeste 0 -- -- 86
2019-11-27 18:00:00 11.7 5 Sudoeste 20 Oeste 0 -- -- 83
2019-11-27 17:00:00 12.1 6 Sur 24 Sudoeste 0 -- -- 81
2019-11-27 16:00:00 12.1 9 Sudoeste 27 Sudoeste 0 -- -- 82
2019-11-27 15:00:00 11.9 12 Sudoeste 28 Oeste 0 -- -- 88
2019-11-27 14:00:00 11.7 8 Sudoeste 22 Oeste 0 -- -- 89
2019-11-27 06:00:00 -- -- -- -- -- -- -- -- --
2019-11-27 05:00:00 -- -- -- -- -- -- -- -- --
2019-11-27 04:00:00 -- -- -- -- -- -- -- -- --
2019-11-27 03:00:00 -- -- -- -- -- -- -- -- --
2019-11-27 02:00:00 -- -- -- -- -- -- -- -- --
2019-11-27 01:00:00 -- -- -- -- -- -- -- -- --
2019-11-27 00:00:00 -- -- -- -- -- -- -- -- --
2019-11-26 23:00:00 -- -- -- -- -- -- -- -- --
2019-11-26 22:00:00 -- -- -- -- -- -- -- -- --
2019-11-26 21:00:00 -- -- -- -- -- -- -- -- --
2019-11-26 20:00:00 -- -- -- -- -- -- -- -- --
2019-11-26 19:00:00 -- -- -- -- -- -- -- -- --
2019-11-26 18:00:00 -- -- -- -- -- -- -- -- --
2019-11-26 17:00:00 -- -- -- -- -- -- -- -- --
2019-11-26 16:00:00 -- -- -- -- -- -- -- -- --
2019-11-26 15:00:00 -- -- -- -- -- -- -- -- --
2019-11-26 14:00:00 -- -- -- -- -- -- -- -- --
2019-11-26 13:00:00 -- -- -- -- -- -- -- -- --
2019-11-26 12:00:00 -- -- -- -- -- -- -- -- --
2019-11-26 11:00:00 -- -- -- -- -- -- -- -- --
2019-11-26 10:00:00 -- -- -- -- -- -- -- -- --
2019-11-26 09:00:00 -- -- -- -- -- -- -- -- --
2019-11-26 08:00:00 -- -- -- -- -- -- -- -- --
2019-11-26 07:00:00 -- -- -- -- -- -- -- -- --
2019-11-26 06:00:00 -- -- -- -- -- -- -- -- --
2019-11-26 05:00:00 -- -- -- -- -- -- -- -- --
2019-11-26 04:00:00 -- -- -- -- -- -- -- -- --
2019-11-26 03:00:00 -- -- -- -- -- -- -- -- --
2019-11-26 02:00:00 -- -- -- -- -- -- -- -- --
2019-11-26 01:00:00 -- -- -- -- -- -- -- -- --
2019-11-26 00:00:00 -- -- -- -- -- -- -- -- --
2019-11-25 23:00:00 -- -- -- -- -- -- -- -- --
2019-11-25 22:00:00 -- -- -- -- -- -- -- -- --
2019-11-25 21:00:00 -- -- -- -- -- -- -- -- --
2019-11-25 20:00:00 -- -- -- -- -- -- -- -- --
2019-11-25 19:00:00 -- -- -- -- -- -- -- -- --
2019-11-25 18:00:00 -- -- -- -- -- -- -- -- --
2019-11-25 17:00:00 -- -- -- -- -- -- -- -- --
2019-11-25 16:00:00 -- -- -- -- -- -- -- -- --
2019-11-25 15:00:00 -- -- -- -- -- -- -- -- --
2019-11-25 14:00:00 -- -- -- -- -- -- -- -- --
2019-11-25 13:00:00 -- -- -- -- -- -- -- -- --
2019-11-25 12:00:00 -- -- -- -- -- -- -- -- --
2019-11-25 11:00:00 -- -- -- -- -- -- -- -- --
2019-11-25 10:00:00 -- -- -- -- -- -- -- -- --
2019-11-25 09:00:00 -- -- -- -- -- -- -- -- --
2019-11-25 08:00:00 -- -- -- -- -- -- -- -- --
2019-11-25 07:00:00 -- -- -- -- -- -- -- -- --
2019-11-25 06:00:00 -- -- -- -- -- -- -- -- --
2019-11-25 05:00:00 -- -- -- -- -- -- -- -- --
2019-11-25 04:00:00 -- -- -- -- -- -- -- -- --
2019-11-25 03:00:00 -- -- -- -- -- -- -- -- --
2019-11-25 02:00:00 -- -- -- -- -- -- -- -- --
2019-11-25 01:00:00 -- -- -- -- -- -- -- -- --
2019-11-25 00:00:00 -- -- -- -- -- -- -- -- --
2019-11-24 23:00:00 -- -- -- -- -- -- -- -- --
2019-11-24 22:00:00 -- -- -- -- -- -- -- -- --
2019-11-24 21:00:00 -- -- -- -- -- -- -- -- --
2019-11-24 20:00:00 -- -- -- -- -- -- -- -- --
2019-11-24 19:00:00 -- -- -- -- -- -- -- -- --
2019-11-24 18:00:00 -- -- -- -- -- -- -- -- --
2019-11-24 17:00:00 -- -- -- -- -- -- -- -- --
2019-11-24 16:00:00 -- -- -- -- -- -- -- -- --
2019-11-24 15:00:00 -- -- -- -- -- -- -- -- --
2019-11-24 14:00:00 -- -- -- -- -- -- -- -- --
2019-11-24 13:00:00 -- -- -- -- -- -- -- -- --
2019-11-24 12:00:00 -- -- -- -- -- -- -- -- --
2019-11-24 11:00:00 -- -- -- -- -- -- -- -- --
2019-11-24 10:00:00 -- -- -- -- -- -- -- -- --
2019-11-24 09:00:00 -- -- -- -- -- -- -- -- --
2019-11-24 08:00:00 -- -- -- -- -- -- -- -- --
2019-11-24 07:00:00 -- -- -- -- -- -- -- -- --
2019-11-24 06:00:00 -- -- -- -- -- -- -- -- --
2019-11-24 05:00:00 -- -- -- -- -- -- -- -- --
2019-11-24 04:00:00 -- -- -- -- -- -- -- -- --
2019-11-24 03:00:00 -- -- -- -- -- -- -- -- --
2019-11-24 02:00:00 -- -- -- -- -- -- -- -- --
2019-11-24 01:00:00 -- -- -- -- -- -- -- -- --
2019-11-24 00:00:00 -- -- -- -- -- -- -- -- --
2019-11-23 23:00:00 -- -- -- -- -- -- -- -- --
2019-11-23 22:00:00 -- -- -- -- -- -- -- -- --
2019-11-23 21:00:00 -- -- -- -- -- -- -- -- --
2019-11-23 20:00:00 -- -- -- -- -- -- -- -- --
2019-11-23 19:00:00 -- -- -- -- -- -- -- -- --
2019-11-23 18:00:00 -- -- -- -- -- -- -- -- --
2019-11-23 17:00:00 -- -- -- -- -- -- -- -- --
2019-11-23 16:00:00 -- -- -- -- -- -- -- -- --
2019-11-23 15:00:00 -- -- -- -- -- -- -- -- --
2019-11-23 14:00:00 -- -- -- -- -- -- -- -- --
2019-11-23 13:00:00 -- -- -- -- -- -- -- -- --
2019-11-23 12:00:00 -- -- -- -- -- -- -- -- --
2019-11-23 11:00:00 -- -- -- -- -- -- -- -- --
2019-11-23 10:00:00 -- -- -- -- -- -- -- -- --
2019-11-23 09:00:00 -- -- -- -- -- -- -- -- --
2019-11-23 08:00:00 -- -- -- -- -- -- -- -- --
2019-11-23 07:00:00 -- -- -- -- -- -- -- -- --
2019-11-23 06:00:00 -- -- -- -- -- -- -- -- --
2019-11-23 05:00:00 -- -- -- -- -- -- -- -- --
2019-11-23 04:00:00 -- -- -- -- -- -- -- -- --
2019-11-23 03:00:00 -- -- -- -- -- -- -- -- --
2019-11-23 02:00:00 -- -- -- -- -- -- -- -- --
2019-11-23 01:00:00 -- -- -- -- -- -- -- -- --
2019-11-23 00:00:00 -- -- -- -- -- -- -- -- --
2019-11-22 23:00:00 -- -- -- -- -- -- -- -- --
2019-11-22 22:00:00 -- -- -- -- -- -- -- -- --
2019-11-22 21:00:00 -- -- -- -- -- -- -- -- --
2019-11-22 20:00:00 -- -- -- -- -- -- -- -- --
2019-11-22 19:00:00 -- -- -- -- -- -- -- -- --
2019-11-22 18:00:00 -- -- -- -- -- -- -- -- --
2019-11-22 17:00:00 -- -- -- -- -- -- -- -- --
2019-11-22 16:00:00 -- -- -- -- -- -- -- -- --
2019-11-22 15:00:00 -- -- -- -- -- -- -- -- --
2019-11-22 14:00:00 -- -- -- -- -- -- -- -- --
2019-11-22 13:00:00 -- -- -- -- -- -- -- -- --
2019-11-22 12:00:00 -- -- -- -- -- -- -- -- --
2019-11-22 11:00:00 -- -- -- -- -- -- -- -- --
2019-11-22 10:00:00 -- -- -- -- -- -- -- -- --
2019-11-22 09:00:00 -- -- -- -- -- -- -- -- --
2019-11-22 08:00:00 -- -- -- -- -- -- -- -- --
2019-11-22 07:00:00 -- -- -- -- -- -- -- -- --
2019-11-22 06:00:00 -- -- -- -- -- -- -- -- --
2019-11-22 05:00:00 -- -- -- -- -- -- -- -- --
2019-11-22 04:00:00 -- -- -- -- -- -- -- -- --
2019-11-22 03:00:00 -- -- -- -- -- -- -- -- --
2019-11-22 02:00:00 -- -- -- -- -- -- -- -- --
2019-11-22 01:00:00 -- -- -- -- -- -- -- -- --
2019-11-22 00:00:00 -- -- -- -- -- -- -- -- --
2019-11-21 23:00:00 -- -- -- -- -- -- -- -- --
2019-11-21 22:00:00 -- -- -- -- -- -- -- -- --
2019-11-21 21:00:00 -- -- -- -- -- -- -- -- --
2019-11-21 20:00:00 -- -- -- -- -- -- -- -- --
2019-11-21 19:00:00 -- -- -- -- -- -- -- -- --
2019-11-21 18:00:00 -- -- -- -- -- -- -- -- --
2019-11-21 17:00:00 -- -- -- -- -- -- -- -- --
2019-11-21 16:00:00 -- -- -- -- -- -- -- -- --
2019-11-21 15:00:00 -- -- -- -- -- -- -- -- --
2019-11-21 14:00:00 -- -- -- -- -- -- -- -- --
2019-11-21 13:00:00 -- -- -- -- -- -- -- -- --
2019-11-21 12:00:00 -- -- -- -- -- -- -- -- --
2019-11-21 11:00:00 -- -- -- -- -- -- -- -- --
2019-11-21 10:00:00 -- -- -- -- -- -- -- -- --
2019-11-21 09:00:00 -- -- -- -- -- -- -- -- --
2019-11-21 08:00:00 -- -- -- -- -- -- -- -- --
2019-11-21 07:00:00 -- -- -- -- -- -- -- -- --
2019-11-21 06:00:00 -- -- -- -- -- -- -- -- --
2019-11-21 05:00:00 -- -- -- -- -- -- -- -- --
2019-11-21 04:00:00 -- -- -- -- -- -- -- -- --
2019-11-21 03:00:00 -- -- -- -- -- -- -- -- --
2019-11-21 02:00:00 -- -- -- -- -- -- -- -- --
2019-11-21 01:00:00 -- -- -- -- -- -- -- -- --
2019-11-21 00:00:00 -- -- -- -- -- -- -- -- --
2019-11-20 23:00:00 -- -- -- -- -- -- -- -- --
2019-11-20 22:00:00 -- -- -- -- -- -- -- -- --
2019-11-20 21:00:00 -- -- -- -- -- -- -- -- --
2019-11-20 20:00:00 -- -- -- -- -- -- -- -- --
2019-11-20 19:00:00 -- -- -- -- -- -- -- -- --
2019-11-20 18:00:00 -- -- -- -- -- -- -- -- --
2019-11-20 17:00:00 -- -- -- -- -- -- -- -- --
2019-11-20 16:00:00 -- -- -- -- -- -- -- -- --
2019-11-20 15:00:00 -- -- -- -- -- -- -- -- --
2019-11-20 14:00:00 -- -- -- -- -- -- -- -- --
2019-11-20 13:00:00 -- -- -- -- -- -- -- -- --
2019-11-20 12:00:00 -- -- -- -- -- -- -- -- --
2019-11-20 11:00:00 -- -- -- -- -- -- -- -- --
2019-11-20 10:00:00 -- -- -- -- -- -- -- -- --
2019-11-20 09:00:00 -- -- -- -- -- -- -- -- --
2019-11-20 08:00:00 -- -- -- -- -- -- -- -- --
2019-11-20 07:00:00 -- -- -- -- -- -- -- -- --
2019-11-20 06:00:00 -- -- -- -- -- -- -- -- --
2019-11-20 05:00:00 -- -- -- -- -- -- -- -- --
2019-11-20 04:00:00 -- -- -- -- -- -- -- -- --
2019-11-20 03:00:00 -- -- -- -- -- -- -- -- --
2019-11-20 02:00:00 -- -- -- -- -- -- -- -- --
2019-11-20 01:00:00 -- -- -- -- -- -- -- -- --
2019-11-20 00:00:00 -- -- -- -- -- -- -- -- --
2019-11-19 23:00:00 -- -- -- -- -- -- -- -- --
2019-11-19 22:00:00 -- -- -- -- -- -- -- -- --
2019-11-19 21:00:00 -- -- -- -- -- -- -- -- --
2019-11-19 20:00:00 -- -- -- -- -- -- -- -- --
2019-11-19 19:00:00 -- -- -- -- -- -- -- -- --
2019-11-19 18:00:00 -- -- -- -- -- -- -- -- --
2019-11-19 17:00:00 -- -- -- -- -- -- -- -- --
2019-11-19 16:00:00 -- -- -- -- -- -- -- -- --
2019-11-19 15:00:00 -- -- -- -- -- -- -- -- --
2019-11-19 14:00:00 -- -- -- -- -- -- -- -- --
2019-11-19 13:00:00 -- -- -- -- -- -- -- -- --
2019-11-19 12:00:00 -- -- -- -- -- -- -- -- --
2019-11-19 11:00:00 -- -- -- -- -- -- -- -- --
2019-11-19 10:00:00 -- -- -- -- -- -- -- -- --
2019-11-19 09:00:00 -- -- -- -- -- -- -- -- --
2019-11-19 08:00:00 -- -- -- -- -- -- -- -- --
2019-11-19 07:00:00 -- -- -- -- -- -- -- -- --
2019-11-19 06:00:00 -- -- -- -- -- -- -- -- --
2019-11-19 05:00:00 -- -- -- -- -- -- -- -- --
2019-11-19 04:00:00 -- -- -- -- -- -- -- -- --
2019-11-19 03:00:00 -- -- -- -- -- -- -- -- --
2019-11-19 02:00:00 -- -- -- -- -- -- -- -- --
2019-11-19 01:00:00 -- -- -- -- -- -- -- -- --
2019-11-19 00:00:00 -- -- -- -- -- -- -- -- --
2019-11-18 23:00:00 -- -- -- -- -- -- -- -- --
2019-11-18 22:00:00 -- -- -- -- -- -- -- -- --
2019-11-18 21:00:00 -- -- -- -- -- -- -- -- --
2019-11-18 20:00:00 -- -- -- -- -- -- -- -- --
2019-11-18 19:00:00 -- -- -- -- -- -- -- -- --
2019-11-18 18:00:00 -- -- -- -- -- -- -- -- --
2019-11-18 17:00:00 -- -- -- -- -- -- -- -- --
2019-11-18 16:00:00 -- -- -- -- -- -- -- -- --
2019-11-18 15:00:00 -- -- -- -- -- -- -- -- --
2019-11-18 14:00:00 -- -- -- -- -- -- -- -- --
2019-11-18 13:00:00 -- -- -- -- -- -- -- -- --
2019-11-18 12:00:00 -- -- -- -- -- -- -- -- --
2019-11-18 11:00:00 -- -- -- -- -- -- -- -- --
2019-11-18 10:00:00 -- -- -- -- -- -- -- -- --
2019-11-18 09:00:00 -- -- -- -- -- -- -- -- --
2019-11-18 08:00:00 -- -- -- -- -- -- -- -- --
2019-11-18 07:00:00 -- -- -- -- -- -- -- -- --
2019-11-18 06:00:00 -- -- -- -- -- -- -- -- --
2019-11-18 05:00:00 -- -- -- -- -- -- -- -- --
2019-11-18 04:00:00 -- -- -- -- -- -- -- -- --
2019-11-18 03:00:00 -- -- -- -- -- -- -- -- --
2019-11-18 02:00:00 -- -- -- -- -- -- -- -- --
2019-11-18 01:00:00 -- -- -- -- -- -- -- -- --
2019-11-18 00:00:00 -- -- -- -- -- -- -- -- --
2019-11-17 23:00:00 -- -- -- -- -- -- -- -- --
2019-11-17 22:00:00 -- -- -- -- -- -- -- -- --
2019-11-17 21:00:00 -- -- -- -- -- -- -- -- --
2019-11-17 20:00:00 -- -- -- -- -- -- -- -- --
2019-11-17 19:00:00 -- -- -- -- -- -- -- -- --
2019-11-17 18:00:00 -- -- -- -- -- -- -- -- --
2019-11-17 17:00:00 -- -- -- -- -- -- -- -- --
2019-11-17 16:00:00 -- -- -- -- -- -- -- -- --
2019-11-17 15:00:00 -- -- -- -- -- -- -- -- --
2019-11-17 14:00:00 -- -- -- -- -- -- -- -- --
2019-11-17 13:00:00 -- -- -- -- -- -- -- -- --
2019-11-17 12:00:00 -- -- -- -- -- -- -- -- --
2019-11-17 11:00:00 -- -- -- -- -- -- -- -- --
2019-11-17 10:00:00 -- -- -- -- -- -- -- -- --
2019-11-17 09:00:00 -- -- -- -- -- -- -- -- --
2019-11-17 08:00:00 -- -- -- -- -- -- -- -- --
2019-11-17 07:00:00 -- -- -- -- -- -- -- -- --
2019-11-17 06:00:00 -- -- -- -- -- -- -- -- --
2019-11-17 05:00:00 -- -- -- -- -- -- -- -- --
2019-11-17 04:00:00 -- -- -- -- -- -- -- -- --
2019-11-17 03:00:00 -- -- -- -- -- -- -- -- --
2019-11-17 02:00:00 -- -- -- -- -- -- -- -- --
2019-11-17 01:00:00 -- -- -- -- -- -- -- -- --
2019-11-17 00:00:00 -- -- -- -- -- -- -- -- --
2019-11-16 23:00:00 -- -- -- -- -- -- -- -- --
2019-11-16 22:00:00 -- -- -- -- -- -- -- -- --
2019-11-16 21:00:00 -- -- -- -- -- -- -- -- --
2019-11-16 20:00:00 -- -- -- -- -- -- -- -- --
2019-11-16 19:00:00 -- -- -- -- -- -- -- -- --
2019-11-16 18:00:00 -- -- -- -- -- -- -- -- --
2019-11-16 17:00:00 -- -- -- -- -- -- -- -- --
2019-11-16 16:00:00 -- -- -- -- -- -- -- -- --
2019-11-16 15:00:00 -- -- -- -- -- -- -- -- --
2019-11-16 14:00:00 -- -- -- -- -- -- -- -- --
2019-11-16 13:00:00 -- -- -- -- -- -- -- -- --
2019-11-16 12:00:00 -- -- -- -- -- -- -- -- --
2019-11-16 11:00:00 -- -- -- -- -- -- -- -- --
2019-11-16 10:00:00 -- -- -- -- -- -- -- -- --
2019-11-16 09:00:00 -- -- -- -- -- -- -- -- --
2019-11-16 08:00:00 -- -- -- -- -- -- -- -- --
2019-11-16 07:00:00 -- -- -- -- -- -- -- -- --
2019-11-16 06:00:00 -- -- -- -- -- -- -- -- --
2019-11-16 05:00:00 -- -- -- -- -- -- -- -- --
2019-11-16 04:00:00 -- -- -- -- -- -- -- -- --
2019-11-16 03:00:00 -- -- -- -- -- -- -- -- --
2019-11-16 02:00:00 -- -- -- -- -- -- -- -- --
2019-11-16 01:00:00 -- -- -- -- -- -- -- -- --
2019-11-16 00:00:00 -- -- -- -- -- -- -- -- --
2019-11-15 23:00:00 -- -- -- -- -- -- -- -- --
2019-11-15 22:00:00 -- -- -- -- -- -- -- -- --
2019-11-15 21:00:00 -- -- -- -- -- -- -- -- --
2019-11-15 20:00:00 -- -- -- -- -- -- -- -- --
2019-11-15 19:00:00 -- -- -- -- -- -- -- -- --
2019-11-15 18:00:00 -- -- -- -- -- -- -- -- --
2019-11-15 17:00:00 -- -- -- -- -- -- -- -- --
2019-11-15 16:00:00 -- -- -- -- -- -- -- -- --
2019-11-15 15:00:00 -- -- -- -- -- -- -- -- --
2019-11-15 14:00:00 -- -- -- -- -- -- -- -- --
2019-11-15 13:00:00 -- -- -- -- -- -- -- -- --
2019-11-15 12:00:00 -- -- -- -- -- -- -- -- --
2019-11-15 11:00:00 -- -- -- -- -- -- -- -- --
2019-11-15 10:00:00 -- -- -- -- -- -- -- -- --
2019-11-15 09:00:00 -- -- -- -- -- -- -- -- --
2019-11-15 08:00:00 -- -- -- -- -- -- -- -- --
2019-11-15 07:00:00 -- -- -- -- -- -- -- -- --
2019-11-15 06:00:00 -- -- -- -- -- -- -- -- --
2019-11-15 05:00:00 -- -- -- -- -- -- -- -- --
2019-11-15 04:00:00 -- -- -- -- -- -- -- -- --
2019-11-15 03:00:00 -- -- -- -- -- -- -- -- --
2019-11-15 02:00:00 -- -- -- -- -- -- -- -- --
2019-11-15 01:00:00 -- -- -- -- -- -- -- -- --
2019-11-15 00:00:00 -- -- -- -- -- -- -- -- --
2019-11-14 23:00:00 -- -- -- -- -- -- -- -- --
2019-11-14 22:00:00 -- -- -- -- -- -- -- -- --
2019-11-14 21:00:00 -- -- -- -- -- -- -- -- --
2019-11-14 20:00:00 -- -- -- -- -- -- -- -- --
2019-11-14 19:00:00 -- -- -- -- -- -- -- -- --
2019-11-14 18:00:00 -- -- -- -- -- -- -- -- --
2019-11-14 17:00:00 -- -- -- -- -- -- -- -- --
2019-11-14 16:00:00 -- -- -- -- -- -- -- -- --
2019-11-14 15:00:00 -- -- -- -- -- -- -- -- --
2019-11-14 14:00:00 10.2 22 Oeste 53 Oeste 0 -- -- 63
2019-11-14 13:00:00 9.8 26 Oeste 51 Sudoeste 0 -- -- 57
2019-11-14 12:00:00 9.8 16 Oeste 42 Oeste 0 -- -- 62
2019-11-14 11:00:00 8.6 19 Noroeste 38 Norte 0 -- -- 63
2019-11-14 10:00:00 7.5 15 Noroeste 46 Noroeste 0 -- -- 72
2019-11-14 09:00:00 6.9 11 Noroeste 36 Noroeste 0 -- -- 75
2019-11-14 08:00:00 7.4 15 Noroeste 40 Noroeste 0.2 -- -- 80
2019-11-14 07:00:00 8.7 14 Noroeste 49 Noroeste 0 -- -- 77
2019-11-14 06:00:00 9.1 4 Sudoeste 18 Oeste 0.2 -- -- 88
2019-11-14 05:00:00 8.2 0 Calma 6 Norte 0.6 -- -- 91
2019-11-14 04:00:00 8.4 0 Calma 10 Sudoeste 0.4 -- -- 86
2019-11-14 03:00:00 8.6 5 Oeste 27 Noroeste 0 -- -- 82
2019-11-14 02:00:00 7.7 10 Oeste 29 Noroeste 0 -- -- 85
2019-11-14 01:00:00 9.2 6 Oeste 36 Noroeste 0 -- -- 72
2019-11-14 00:00:00 7 6 Noroeste 10 Oeste 0 -- -- 81
2019-11-13 23:00:00 9.1 5 Oeste 15 Noroeste 0 -- -- 75
2019-11-13 22:00:00 11.4 8 Noroeste 29 Noroeste 0 -- -- 62
2019-11-13 21:00:00 12.6 19 Noroeste 42 Norte 0 -- -- 57
2019-11-13 20:00:00 12.4 14 Noroeste 30 Noroeste 0 -- -- 66
2019-11-13 19:00:00 12.7 3 Sur 13 Sudoeste 0 -- -- 71
2019-11-13 18:00:00 15.9 9 Oeste 21 Oeste 0 -- -- 66
2019-11-13 17:00:00 18.6 9 Oeste 28 Sudoeste 0 -- -- 53
2019-11-13 16:00:00 19.2 9 Sudoeste 24 Oeste 0 -- -- 52
2019-11-13 15:00:00 18.7 9 Sudoeste 30 Sudoeste 0 -- -- 52
2019-11-13 14:00:00 18.4 9 Oeste 23 Noroeste 0 -- -- 58
2019-11-13 13:00:00 17.5 10 Noroeste 31 Norte 0 -- -- 64
2019-11-13 12:00:00 17.4 5 Noroeste 21 Sur 0 -- -- 67
2019-11-13 11:00:00 15.9 10 Sudoeste 25 Sudoeste 0 -- -- 72
2019-11-13 10:00:00 14.6 12 Oeste 32 Oeste 0 -- -- 75
2019-11-13 09:00:00 12.3 16 Oeste 31 Noroeste 0 -- -- 84
2019-11-13 08:00:00 11.8 5 Noroeste 37 Sudoeste 0 -- -- 86
2019-11-13 07:00:00 11.5 5 Nordeste 18 Oeste 0 -- -- 93
2019-11-13 06:00:00 12.2 10 Noroeste 22 Oeste 0.4 -- -- 93
2019-11-13 05:00:00 11.5 8 Oeste 15 Oeste 1.2 -- -- 95
2019-11-13 04:00:00 11.3 4 Sudoeste 14 Oeste 1.2 -- -- 93
2019-11-13 03:00:00 11.2 8 Oeste 20 Sudoeste 1.8 -- -- 93
2019-11-13 02:00:00 11.2 10 Sudoeste 26 Oeste 0.8 -- -- 91
2019-11-13 01:00:00 11.6 13 Oeste 28 Oeste 0 -- -- 86
2019-11-13 00:00:00 11.2 9 Oeste 25 Oeste 0 -- -- 88
2019-11-12 23:00:00 11 8 Sudoeste 22 Sudoeste 0 -- -- 87
2019-11-12 22:00:00 11.4 6 Sudoeste 24 Noroeste 0 -- -- 85
2019-11-12 21:00:00 11.4 10 Oeste 22 Oeste 0 -- -- 83
2019-11-12 20:00:00 11.5 7 Sudoeste 31 Sudoeste 0 -- -- 80
2019-11-12 19:00:00 11.9 13 Oeste 26 Oeste 0 -- -- 77
2019-11-12 18:00:00 13.3 6 Oeste 19 Sudoeste 0 -- -- 68
2019-11-12 17:00:00 13.8 9 Noroeste 23 Sudoeste 0 -- -- 66
2019-11-12 16:00:00 15 8 Sudoeste 28 Norte 0 -- -- 60
2019-11-12 15:00:00 14 10 Norte 30 Norte 0 -- -- 61
2019-11-12 14:00:00 14.4 10 Norte 28 Norte 0 -- -- 56
2019-11-12 13:00:00 14.3 8 Nordeste 31 Nordeste 0 -- -- 55
2019-11-12 12:00:00 12.8 9 Nordeste 32 Nordeste 0 -- -- 58
2019-11-12 11:00:00 11.1 13 Nordeste 31 Norte 0 -- -- 60
2019-11-12 10:00:00 9.6 10 Norte 28 Nordeste 0 -- -- 63
2019-11-12 09:00:00 7.9 7 Norte 19 Norte 0 -- -- 67
2019-11-12 08:00:00 7.8 10 Norte 40 Norte 0 -- -- 66
2019-11-12 07:00:00 8.7 28 Norte 50 Norte 0 -- -- 59
2019-11-12 06:00:00 8.9 21 Noroeste 39 Noroeste 0 -- -- 62
2019-11-12 05:00:00 8.8 4 Noroeste 31 Norte 0 -- -- 63
2019-11-12 04:00:00 9.3 13 Norte 41 Norte 0 -- -- 61
2019-11-12 03:00:00 10 21 Norte 42 Noroeste 0 -- -- 57
2019-11-12 02:00:00 9.1 7 Sur 35 Sur 0 -- -- 69
2019-11-12 01:00:00 10 19 Norte 35 Noroeste 0 -- -- 64
2019-11-12 00:00:00 10.4 27 Norte 57 Noroeste 0 -- -- 63
2019-11-11 23:00:00 11.2 27 Norte 45 Noroeste 0 -- -- 60
2019-11-11 22:00:00 10.6 26 Norte 46 Norte 0 -- -- 65
2019-11-11 21:00:00 11 24 Norte 40 Noroeste 0 -- -- 67
2019-11-11 20:00:00 11.4 9 Norte 28 Noroeste 0 -- -- 67
2019-11-11 19:00:00 12.1 9 Norte 24 Noroeste 0 -- -- 74
2019-11-11 18:00:00 13.7 12 Noroeste 28 Noroeste 0 -- -- 67
2019-11-11 17:00:00 16.3 7 Norte 23 Noroeste 0 -- -- 66
2019-11-11 16:00:00 16.6 6 Noroeste 24 Norte 0 -- -- 65
2019-11-11 15:00:00 16.6 5 Norte 21 Oeste 0 -- -- 64
2019-11-11 14:00:00 14.6 3 Oeste 10 Este 0 -- -- 81
2019-11-11 13:00:00 12.7 3 Sur 10 Sudeste 0 -- -- 87
2019-11-11 12:00:00 10.6 2 Sudoeste 9 Sudeste 0 -- -- 90
2019-11-11 11:00:00 10.3 2 Norte 14 Oeste 0 -- -- 90
2019-11-11 10:00:00 9.8 8 Sudoeste 17 Sudoeste 0 -- -- 90
2019-11-11 09:00:00 9.3 3 Norte 25 Sudoeste 0 -- -- 88
2019-11-11 08:00:00 9.3 12 Oeste 22 Sudoeste 0 -- -- 87
2019-11-11 07:00:00 9.1 4 Oeste 20 Sudoeste 0 -- -- 88
2019-11-11 06:00:00 8.8 11 Oeste 23 Sudoeste 0 -- -- 89
2019-11-11 05:00:00 8.7 6 Sudoeste 13 Oeste 0 -- -- 91
2019-11-11 04:00:00 8.8 2 Noroeste 5 Nordeste 0 -- -- 89
2019-11-11 03:00:00 8.9 0 Calma 3 Sur 0 -- -- 87
2019-11-11 02:00:00 8.6 3 Norte 5 Noroeste 0 -- -- 88
2019-11-11 01:00:00 8.5 0 Calma 5 Sudeste 0 -- -- 87
2019-11-11 00:00:00 8.4 2 Noroeste 14 Sur 0 -- -- 86